Time;durP1;ratioP1;P1;durP2;ratioP2;P2;SDS_P1;SDS_P2;PMS_P1;PMS_P2;Temp;Humidity;BMP_temperature;BMP_pressure;BME280_temperature;BME280_humidity;BME280_pressure;Samples;Min_cycle;Max_cycle;Signal;HPM_P1;HPM_P2
2022/10/02 00:00:40;;;;;;;15.05;2.40;;;12.40;99.90;;;;;;5142235;27;20087;-57
2022/10/02 00:03:17;;;;;;;22.63;3.65;;;12.40;99.90;;;;;;5140458;27;20043;-54
2022/10/02 00:05:47;;;;;;;15.15;2.92;;;12.40;99.90;;;;;;5151948;27;20402;-54
2022/10/02 00:08:21;;;;;;;17.25;3.45;;;12.40;99.90;;;;;;5149513;27;20399;-55
2022/10/02 00:10:54;;;;;;;17.80;3.78;;;12.40;99.90;;;;;;5150199;27;20106;-57
2022/10/02 00:13:25;;;;;;;12.13;2.70;;;12.50;99.90;;;;;;5142693;27;20381;-54
2022/10/02 00:15:52;;;;;;;20.23;3.35;;;12.50;99.90;;;;;;5135787;27;20046;-57
2022/10/02 00:18:46;;;;;;;15.10;2.80;;;12.50;99.90;;;;;;5130536;27;20491;-56
2022/10/02 00:21:39;;;;;;;15.32;2.90;;;12.50;99.90;;;;;;5137764;27;20070;-55
2022/10/02 00:24:10;;;;;;;24.15;3.85;;;12.40;99.90;;;;;;5139945;27;20039;-57
2022/10/02 00:26:48;;;;;;;13.73;2.30;;;12.40;99.90;;;;;;5153066;27;20042;-56
2022/10/02 00:29:53;;;;;;;21.17;3.40;;;12.40;99.90;;;;;;5139872;27;20084;-54
2022/10/02 00:32:32;;;;;;;11.50;2.17;;;12.40;99.90;;;;;;5107412;27;20049;-56
2022/10/02 00:35:32;;;;;;;9.38;1.92;;;12.40;99.90;;;;;;5123194;27;20051;-54
2022/10/02 00:38:18;;;;;;;15.27;2.25;;;12.40;99.90;;;;;;5149545;27;20126;-56
2022/10/02 00:41:02;;;;;;;18.20;2.78;;;12.30;99.90;;;;;;5133632;27;20125;-56
2022/10/02 00:43:49;;;;;;;16.33;3.35;;;12.30;99.90;;;;;;5146679;27;20127;-56
2022/10/02 00:46:36;;;;;;;16.83;4.35;;;12.30;99.90;;;;;;5137167;27;20495;-56
2022/10/02 00:49:26;;;;;;;29.90;4.38;;;12.30;99.90;;;;;;5141079;27;20044;-56
2022/10/02 00:52:36;;;;;;;21.52;3.10;;;12.20;99.90;;;;;;5136265;27;20035;-57
2022/10/02 00:55:32;;;;;;;14.35;3.13;;;12.30;99.90;;;;;;5147030;27;20045;-54
2022/10/02 00:58:25;;;;;;;16.88;3.13;;;12.30;99.90;;;;;;5130780;27;20072;-56
2022/10/02 01:01:06;;;;;;;21.30;3.53;;;12.30;99.90;;;;;;5154486;27;20045;-54
2022/10/02 01:03:36;;;;;;;12.38;2.65;;;12.30;99.90;;;;;;5138690;27;20039;-54
2022/10/02 01:06:02;;;;;;;21.65;3.38;;;12.30;99.90;;;;;;5142350;27;20043;-56
2022/10/02 01:08:27;;;;;;;13.50;3.10;;;12.30;99.90;;;;;;5147347;27;20031;-55
2022/10/02 01:10:53;;;;;;;21.13;3.67;;;12.30;99.90;;;;;;5153385;27;20126;-53
2022/10/02 01:13:19;;;;;;;16.17;3.05;;;12.40;99.90;;;;;;5138395;27;20276;-56
2022/10/02 01:15:51;;;;;;;21.02;2.80;;;12.40;99.90;;;;;;5132841;27;20042;-56
2022/10/02 01:18:17;;;;;;;18.67;2.60;;;12.40;99.90;;;;;;5136212;27;20074;-57
2022/10/02 01:20:47;;;;;;;22.92;3.53;;;12.40;99.90;;;;;;5136308;27;20035;-56
2022/10/02 01:23:29;;;;;;;13.13;2.33;;;12.40;99.90;;;;;;5119801;27;20037;-56
2022/10/02 01:25:55;;;;;;;21.08;3.40;;;12.40;99.90;;;;;;5113437;27;20051;-55
2022/10/02 01:28:21;;;;;;;18.27;2.63;;;12.40;99.90;;;;;;5122243;27;20044;-57
2022/10/02 01:30:51;;;;;;;13.80;2.63;;;12.50;99.90;;;;;;5152082;27;20069;-54
2022/10/02 01:33:18;;;;;;;18.13;2.92;;;12.50;99.90;;;;;;5149683;27;20042;-57
2022/10/02 01:35:44;;;;;;;18.23;3.00;;;12.60;99.90;;;;;;5152626;27;20510;-54
2022/10/02 01:38:12;;;;;;;;;;;12.60;99.90;;;;;;5134332;27;20114;-57
2022/10/02 01:40:39;;;;;;;12.20;2.38;;;12.60;99.90;;;;;;5135143;27;20280;-56
2022/10/02 01:43:13;;;;;;;18.98;3.60;;;12.70;99.90;;;;;;5148767;27;20038;-56
2022/10/02 01:46:11;;;;;;;10.55;2.60;;;12.70;99.90;;;;;;5150772;27;20034;-56
2022/10/02 01:49:17;;;;;;;13.15;3.78;;;12.70;99.90;;;;;;5130383;27;20036;-54
2022/10/02 01:51:52;;;;;;;15.20;2.70;;;12.80;99.90;;;;;;5119117;27;20039;-55
2022/10/02 01:54:36;;;;;;;15.00;3.15;;;12.80;99.90;;;;;;5138458;27;20045;-55
2022/10/02 01:57:16;;;;;;;13.82;2.72;;;12.80;99.90;;;;;;5151352;27;20074;-58
2022/10/02 01:59:51;;;;;;;12.18;2.38;;;12.80;99.90;;;;;;5139203;27;20074;-56
2022/10/02 02:02:28;;;;;;;13.05;3.20;;;12.80;99.90;;;;;;5139879;27;20247;-57
2022/10/02 02:05:03;;;;;;;22.25;4.10;;;12.80;99.90;;;;;;5141665;27;20039;-57
2022/10/02 02:07:34;;;;;;;10.52;2.20;;;12.80;99.90;;;;;;5142600;27;20150;-56
2022/10/02 02:10:28;;;;;;;13.50;2.47;;;12.70;99.90;;;;;;5142008;27;20035;-55
2022/10/02 02:13:02;;;;;;;15.90;2.20;;;12.70;99.90;;;;;;5140394;27;20042;-56
2022/10/02 02:15:39;;;;;;;16.08;2.78;;;12.70;99.90;;;;;;5133590;27;20047;-54
2022/10/02 02:18:33;;;;;;;15.48;2.58;;;12.70;99.90;;;;;;5111530;28;20088;-56
2022/10/02 02:21:07;;;;;;;14.80;2.28;;;12.60;99.90;;;;;;5127898;27;20096;-55
2022/10/02 02:23:36;;;;;;;20.10;2.13;;;12.70;99.90;;;;;;5131446;27;20053;-56
2022/10/02 02:26:08;;;;;;;11.65;1.92;;;12.60;99.90;;;;;;5135757;27;20046;-57
2022/10/02 02:28:36;;;;;;;15.30;2.03;;;12.60;99.90;;;;;;5151316;27;20058;-55
2022/10/02 02:31:04;;;;;;;17.88;2.88;;;12.60;99.90;;;;;;5135839;27;20040;-56
2022/10/02 02:33:41;;;;;;;9.30;1.73;;;12.50;99.90;;;;;;5148251;27;20510;-53
2022/10/02 02:36:12;;;;;;;16.05;2.33;;;12.50;99.90;;;;;;5139774;27;20110;-56
2022/10/02 02:39:01;;;;;;;12.10;1.38;;;12.50;99.90;;;;;;5134539;27;20049;-56
2022/10/02 02:41:33;;;;;;;12.30;3.08;;;12.50;99.90;;;;;;5138161;27;20391;-57
2022/10/02 02:44:04;;;;;;;8.77;1.33;;;12.50;99.90;;;;;;5143398;27;20164;-56
2022/10/02 02:47:02;;;;;;;8.20;1.75;;;12.50;99.90;;;;;;5145336;27;20402;-54
2022/10/02 02:49:24;;;;;;;10.50;1.48;;;12.50;99.90;;;;;;5121329;27;20050;-57
2022/10/02 02:51:52;;;;;;;9.35;1.17;;;12.50;99.90;;;;;;5135890;27;20099;-55
2022/10/02 02:54:23;;;;;;;14.38;1.65;;;12.50;99.90;;;;;;5133275;27;20517;-57
2022/10/02 02:56:50;;;;;;;10.20;1.70;;;12.40;99.90;;;;;;5143635;27;20047;-56
2022/10/02 02:59:19;;;;;;;12.77;1.95;;;12.40;99.90;;;;;;5139234;27;20398;-56
2022/10/02 03:01:45;;;;;;;12.15;2.10;;;12.40;99.90;;;;;;5144523;27;20458;-55
2022/10/02 03:04:11;;;;;;;14.07;2.50;;;12.40;99.90;;;;;;5137898;27;20127;-56
2022/10/02 03:06:43;;;;;;;10.57;1.52;;;12.30;99.90;;;;;;5132288;27;20043;-56
2022/10/02 03:09:16;;;;;;;8.43;1.77;;;12.30;99.90;;;;;;5138801;27;20392;-54
2022/10/02 03:12:04;;;;;;;13.68;2.45;;;12.30;99.90;;;;;;5146235;27;20027;-56
2022/10/02 03:14:57;;;;;;;13.98;2.58;;;12.20;99.90;;;;;;5145829;27;20034;-56
2022/10/02 03:17:39;;;;;;;15.57;1.52;;;12.20;99.90;;;;;;5152300;27;20031;-56
2022/10/02 03:20:16;;;;;;;10.48;1.98;;;12.20;99.90;;;;;;5137793;27;20091;-54
2022/10/02 03:22:50;;;;;;;10.80;1.30;;;12.10;99.90;;;;;;5131651;27;20027;-57
2022/10/02 03:25:20;;;;;;;8.95;1.58;;;12.10;99.90;;;;;;5125865;27;20039;-54
2022/10/02 03:28:15;;;;;;;14.45;1.15;;;12.10;99.90;;;;;;5149650;27;20031;-56
2022/10/02 03:30:42;;;;;;;8.93;1.15;;;12.10;99.90;;;;;;5139546;27;20511;-56
2022/10/02 03:33:11;;;;;;;9.80;1.45;;;12.10;99.90;;;;;;5137609;27;20166;-56
2022/10/02 03:35:38;;;;;;;11.05;1.98;;;12.20;99.90;;;;;;5155055;27;20038;-56
2022/10/02 03:38:08;;;;;;;5.50;0.80;;;12.20;99.90;;;;;;5146847;27;20526;-55
2022/10/02 03:40:34;;;;;;;7.72;1.35;;;12.20;99.90;;;;;;5144453;27;20434;-56
2022/10/02 03:43:00;;;;;;;8.23;1.27;;;12.10;99.90;;;;;;5148015;27;20035;-56
2022/10/02 03:45:27;;;;;;;8.77;1.50;;;12.20;99.90;;;;;;5127491;27;20416;-56
2022/10/02 03:47:52;;;;;;;7.10;1.25;;;12.10;99.90;;;;;;5150458;27;20464;-54
2022/10/02 03:50:18;;;;;;;6.55;0.88;;;12.10;99.90;;;;;;5133663;27;20032;-55
2022/10/02 03:52:45;;;;;;;11.90;2.22;;;12.10;99.90;;;;;;5132527;27;20027;-54
2022/10/02 03:55:35;;;;;;;8.15;1.73;;;12.10;99.90;;;;;;5158135;27;20098;-56
2022/10/02 03:58:14;;;;;;;7.32;1.10;;;12.10;99.90;;;;;;5136739;27;20490;-55
2022/10/02 04:01:18;;;;;;;10.48;1.58;;;12.10;99.90;;;;;;5141184;27;20113;-53
2022/10/02 04:03:56;;;;;;;7.20;1.27;;;12.00;99.90;;;;;;5140316;27;20049;-55
2022/10/02 04:06:41;;;;;;;12.65;1.42;;;12.00;99.90;;;;;;5152697;27;20077;-55
2022/10/02 04:09:30;;;;;;;5.97;1.05;;;12.00;99.90;;;;;;5115977;27;20039;-56
2022/10/02 04:12:05;;;;;;;11.75;2.10;;;12.00;99.90;;;;;;5141780;27;20491;-55
2022/10/02 04:15:09;;;;;;;12.27;2.00;;;12.00;99.90;;;;;;5138576;27;20057;-56
2022/10/02 04:18:01;;;;;;;15.15;2.15;;;12.00;99.90;;;;;;5131813;27;20050;-56
2022/10/02 04:20:48;;;;;;;15.20;2.60;;;12.00;99.90;;;;;;5117312;28;20040;-56
2022/10/02 04:23:22;;;;;;;9.55;1.73;;;12.00;99.90;;;;;;5138858;27;20087;-54
2022/10/02 04:25:51;;;;;;;18.67;1.77;;;12.00;99.90;;;;;;5144939;27;20044;-57
2022/10/02 04:28:25;;;;;;;12.27;1.30;;;12.10;99.90;;;;;;5145875;27;20035;-56
2022/10/02 04:30:52;;;;;;;10.90;2.30;;;12.00;99.90;;;;;;5133632;27;20043;-57
2022/10/02 04:33:20;;;;;;;12.30;3.67;;;12.00;99.90;;;;;;5136400;27;20038;-57
2022/10/02 04:35:57;;;;;;;14.52;2.58;;;12.00;99.90;;;;;;5141713;27;20040;-57
2022/10/02 04:38:23;;;;;;;;;;;12.00;99.90;;;;;;5145049;27;20488;-57
2022/10/02 04:41:21;;;;;;;19.30;3.40;;;12.00;99.90;;;;;;5134677;27;19964;-57
2022/10/02 04:44:05;;;;;;;12.18;2.03;;;12.00;99.90;;;;;;5124689;27;20449;-56
2022/10/02 04:46:54;;;;;;;8.45;2.22;;;12.00;99.90;;;;;;5116026;27;20080;-57
2022/10/02 04:49:42;;;;;;;12.77;2.72;;;11.90;99.90;;;;;;5120445;27;20073;-55
2022/10/02 04:52:35;;;;;;;13.20;2.60;;;11.90;99.90;;;;;;5150037;27;20031;-57
2022/10/02 04:55:22;;;;;;;23.45;4.00;;;11.90;99.90;;;;;;5143749;27;20092;-57
2022/10/02 04:58:12;;;;;;;13.60;2.43;;;11.90;99.90;;;;;;5145176;27;20039;-56
2022/10/02 05:00:47;;;;;;;12.38;3.03;;;11.90;99.90;;;;;;5147125;27;20859;-57
2022/10/02 05:03:24;;;;;;;12.40;2.53;;;11.90;99.90;;;;;;5136263;27;20027;-56
2022/10/02 05:06:01;;;;;;;17.45;3.28;;;11.80;99.90;;;;;;5133991;27;20047;-56
2022/10/02 05:08:53;;;;;;;12.15;3.45;;;11.80;99.90;;;;;;5148508;27;20066;-56
2022/10/02 05:11:30;;;;;;;12.50;2.78;;;11.90;99.90;;;;;;5136081;27;20043;-55
2022/10/02 05:14:17;;;;;;;12.63;3.33;;;11.90;99.90;;;;;;5142012;27;20671;-56
2022/10/02 05:17:24;;;;;;;19.63;4.70;;;11.80;99.90;;;;;;5117287;27;20153;-56
2022/10/02 05:20:16;;;;;;;21.85;4.72;;;11.80;99.90;;;;;;5120275;27;20045;-56
2022/10/02 05:22:58;;;;;;;16.40;3.60;;;11.80;99.90;;;;;;5128279;27;20247;-56
2022/10/02 05:25:52;;;;;;;17.13;2.65;;;11.80;99.90;;;;;;5133228;27;20139;-56
2022/10/02 05:28:44;;;;;;;20.95;4.22;;;11.80;99.90;;;;;;5149142;27;20515;-56
2022/10/02 05:31:26;;;;;;;20.08;4.07;;;11.80;99.90;;;;;;5137926;27;20445;-55
2022/10/02 05:34:24;;;;;;;15.63;3.42;;;11.80;99.90;;;;;;5112475;27;20036;-56
2022/10/02 05:37:05;;;;;;;14.75;3.15;;;11.80;99.90;;;;;;5137648;27;20038;-55
2022/10/02 05:39:40;;;;;;;23.48;3.70;;;11.80;99.90;;;;;;5152347;27;20034;-55
2022/10/02 05:42:26;;;;;;;23.55;3.38;;;11.80;99.90;;;;;;5134185;27;20031;-57
2022/10/02 05:45:04;;;;;;;9.25;2.40;;;11.80;99.90;;;;;;5136553;27;20054;-56
2022/10/02 05:47:36;;;;;;;23.85;3.45;;;11.80;99.90;;;;;;5135442;27;20039;-55
2022/10/02 05:50:11;;;;;;;17.08;2.60;;;11.80;99.90;;;;;;5132392;27;20105;-56
2022/10/02 05:52:54;;;;;;;11.30;2.20;;;11.80;99.90;;;;;;5132141;27;20042;-54
2022/10/02 05:55:38;;;;;;;16.50;2.88;;;11.90;99.90;;;;;;5135657;27;20035;-56
2022/10/02 05:58:11;;;;;;;14.07;2.90;;;12.00;99.90;;;;;;5141373;27;20077;-54
2022/10/02 06:00:55;;;;;;;11.43;2.53;;;12.10;99.90;;;;;;5138283;27;20050;-57
2022/10/02 06:03:27;;;;;;;16.98;3.50;;;12.30;99.90;;;;;;5152284;27;20035;-55
2022/10/02 06:06:09;;;;;;;14.75;2.22;;;12.40;99.90;;;;;;5141356;27;20105;-55
2022/10/02 06:08:46;;;;;;;16.15;2.85;;;12.60;99.90;;;;;;5152171;27;20090;-55
2022/10/02 06:11:36;;;;;;;9.60;2.05;;;12.70;99.90;;;;;;5132602;27;20054;-56
2022/10/02 06:14:12;;;;;;;14.20;3.53;;;12.70;99.90;;;;;;5133627;27;20039;-57
2022/10/02 06:16:45;;;;;;;8.75;2.97;;;12.90;99.90;;;;;;5140050;27;20114;-56
2022/10/02 06:19:20;;;;;;;16.65;3.55;;;13.10;99.90;;;;;;5113317;27;20058;-57
2022/10/02 06:21:51;;;;;;;7.32;2.10;;;13.20;99.90;;;;;;5132611;27;20175;-58
2022/10/02 06:24:27;;;;;;;13.50;1.80;;;13.30;99.90;;;;;;5131672;27;20050;-58
2022/10/02 06:27:02;;;;;;;9.30;2.10;;;13.40;99.90;;;;;;5115014;27;20096;-57
2022/10/02 06:29:38;;;;;;;13.95;2.65;;;13.60;99.90;;;;;;5113339;27;20035;-56
2022/10/02 06:32:32;;;;;;;20.27;3.13;;;13.90;99.90;;;;;;5133417;27;20066;-57
2022/10/02 06:34:58;;;;;;;9.15;1.95;;;14.40;99.90;;;;;;5099183;27;20039;-57
2022/10/02 06:37:56;;;;;;;11.00;2.70;;;14.90;99.90;;;;;;5131602;27;20087;-57
2022/10/02 06:40:21;;;;;;;;;;;15.40;99.90;;;;;;5131949;27;20292;-57
2022/10/02 06:43:15;;;;;;;9.23;1.13;;;15.90;99.90;;;;;;5131223;27;20191;-58
2022/10/02 06:46:07;;;;;;;7.40;1.58;;;16.30;99.90;;;;;;5126706;27;20044;-55
2022/10/02 06:48:47;;;;;;;9.55;1.67;;;16.60;99.90;;;;;;5110541;28;20040;-58
2022/10/02 06:51:34;;;;;;;10.27;1.48;;;16.60;99.90;;;;;;5116090;27;20074;-57
2022/10/02 06:54:10;;;;;;;9.82;1.23;;;16.40;99.90;;;;;;5110877;27;20126;-55
2022/10/02 06:57:13;;;;;;;16.75;3.30;;;16.20;99.90;;;;;;5112041;27;20049;-57
2022/10/02 07:00:14;;;;;;;14.65;2.22;;;16.10;99.90;;;;;;5115396;27;20046;-58
2022/10/02 07:03:16;;;;;;;15.23;2.05;;;15.90;99.90;;;;;;5130766;27;20564;-59
2022/10/02 07:06:03;;;;;;;15.10;1.95;;;15.70;99.90;;;;;;5110647;28;20082;-59
2022/10/02 07:08:37;;;;;;;12.50;1.95;;;15.70;99.90;;;;;;5109039;28;20115;-59
2022/10/02 07:11:08;;;;;;;14.93;2.92;;;15.60;99.90;;;;;;5095543;28;20118;-58
2022/10/02 07:13:51;;;;;;;12.98;2.03;;;15.50;99.90;;;;;;5130129;28;20031;-59
2022/10/02 07:16:26;;;;;;;8.55;1.55;;;15.40;99.90;;;;;;5139605;27;20304;-57
2022/10/02 07:19:04;;;;;;;12.10;2.58;;;15.30;99.90;;;;;;5129628;27;20031;-57
2022/10/02 07:21:49;;;;;;;8.40;2.63;;;15.30;99.90;;;;;;5134461;27;20037;-57
2022/10/02 07:24:26;;;;;;;11.25;1.90;;;15.30;99.90;;;;;;5139403;27;20039;-57
2022/10/02 07:27:02;;;;;;;12.85;2.42;;;15.40;99.90;;;;;;5132177;27;20035;-58
2022/10/02 07:29:37;;;;;;;12.98;2.08;;;15.50;99.90;;;;;;5126326;27;20506;-57
2022/10/02 07:32:42;;;;;;;11.70;1.63;;;15.50;99.90;;;;;;5137026;27;20037;-56
2022/10/02 07:35:40;;;;;;;10.77;2.60;;;15.60;99.90;;;;;;5132176;27;20039;-58
2022/10/02 07:38:43;;;;;;;12.63;1.75;;;15.70;99.90;;;;;;5142350;27;20470;-57
2022/10/02 07:41:29;;;;;;;11.70;2.42;;;15.80;99.90;;;;;;5132029;27;20043;-57
2022/10/02 07:44:02;;;;;;;11.68;1.95;;;15.80;99.90;;;;;;5118577;27;20114;-59
2022/10/02 07:46:46;;;;;;;12.02;2.05;;;15.80;99.90;;;;;;5139548;27;20605;-59
2022/10/02 07:49:42;;;;;;;14.05;2.63;;;15.80;99.90;;;;;;5118163;28;20042;-55
2022/10/02 07:52:54;;;;;;;6.22;1.23;;;16.00;99.90;;;;;;5133410;27;20399;-59
2022/10/02 07:55:22;;;;;;;12.68;1.52;;;16.00;99.90;;;;;;5132568;27;20177;-61
2022/10/02 07:58:15;;;;;;;8.48;2.17;;;16.10;99.90;;;;;;5123929;27;20046;-60
2022/10/02 08:00:49;;;;;;;6.57;1.80;;;16.20;99.90;;;;;;5134372;27;20092;-60
2022/10/02 08:03:19;;;;;;;10.48;1.13;;;16.30;99.90;;;;;;5135161;27;20050;-59
2022/10/02 08:05:51;;;;;;;14.43;2.30;;;16.30;99.90;;;;;;5134629;27;20495;-61
2022/10/02 08:08:27;;;;;;;14.25;1.45;;;16.30;99.90;;;;;;5099336;27;20043;-59
2022/10/02 08:11:07;;;;;;;11.52;2.05;;;16.30;99.90;;;;;;5124075;27;20036;-60
2022/10/02 08:13:41;;;;;;;11.68;2.03;;;16.30;99.90;;;;;;5122478;27;20125;-59
2022/10/02 08:16:08;;;;;;;16.02;2.13;;;16.40;99.90;;;;;;5137026;27;20110;-59
2022/10/02 08:18:42;;;;;;;11.00;2.22;;;16.40;99.90;;;;;;5143169;27;20031;-60
2022/10/02 08:21:15;;;;;;;9.98;1.77;;;16.40;99.90;;;;;;5116029;27;20400;-60
2022/10/02 08:23:49;;;;;;;14.77;1.90;;;16.50;99.90;;;;;;5145106;27;20042;-59
2022/10/02 08:26:23;;;;;;;14.50;1.90;;;16.50;99.90;;;;;;5138141;27;20031;-60
2022/10/02 08:29:10;;;;;;;14.20;2.10;;;16.60;99.90;;;;;;5115080;27;20425;-60
2022/10/02 08:31:36;;;;;;;9.25;1.73;;;16.60;99.90;;;;;;5150530;27;20499;-57
2022/10/02 08:34:16;;;;;;;9.00;1.95;;;16.60;99.90;;;;;;5117112;27;20146;-58
2022/10/02 08:36:45;;;;;;;12.15;1.48;;;16.50;99.90;;;;;;5150710;27;20041;-60
2022/10/02 08:39:46;;;;;;;8.27;2.08;;;16.40;99.90;;;;;;5149686;27;20107;-60
2022/10/02 08:42:32;;;;;;;7.93;1.20;;;16.40;99.90;;;;;;5134499;27;20070;-60
2022/10/02 08:45:14;;;;;;;14.07;1.45;;;16.60;99.90;;;;;;5153759;27;20141;-59
2022/10/02 08:48:04;;;;;;;10.40;1.83;;;16.70;99.90;;;;;;5130717;27;20042;-59
2022/10/02 08:51:00;;;;;;;14.07;2.22;;;16.90;99.90;;;;;;5124098;27;20058;-58
2022/10/02 08:53:34;;;;;;;16.33;1.88;;;17.10;99.90;;;;;;5143274;27;20035;-59
2022/10/02 08:56:20;;;;;;;10.65;1.88;;;17.30;99.90;;;;;;5133568;27;20106;-60
2022/10/02 08:59:13;;;;;;;7.35;1.45;;;17.30;99.90;;;;;;5154059;27;20110;-59
2022/10/02 09:02:04;;;;;;;9.60;1.67;;;17.40;99.90;;;;;;5104121;27;20052;-59
2022/10/02 09:05:02;;;;;;;8.25;1.38;;;17.50;99.90;;;;;;5153440;27;20047;-60
2022/10/02 09:08:07;;;;;;;11.27;1.05;;;17.50;99.90;;;;;;5138309;27;20130;-58
2022/10/02 09:10:51;;;;;;;8.57;1.67;;;17.50;99.90;;;;;;5131672;27;20040;-59
2022/10/02 09:13:44;;;;;;;10.10;1.77;;;17.60;99.90;;;;;;5153560;27;20039;-59
2022/10/02 09:16:19;;;;;;;8.60;1.88;;;17.60;99.90;;;;;;5133822;27;20538;-60
2022/10/02 09:18:53;;;;;;;10.15;0.90;;;17.70;99.90;;;;;;5132581;27;20408;-59
2022/10/02 09:21:53;;;;;;;11.27;1.58;;;17.90;99.90;;;;;;5132459;27;20045;-57
2022/10/02 09:24:46;;;;;;;8.40;1.55;;;17.90;99.90;;;;;;5131148;27;20081;-59
2022/10/02 09:27:26;;;;;;;13.05;2.00;;;18.00;99.90;;;;;;5133705;27;20035;-59
2022/10/02 09:30:22;;;;;;;12.88;1.55;;;18.10;99.90;;;;;;5132893;27;20442;-59
2022/10/02 09:33:07;;;;;;;6.97;1.02;;;18.10;99.90;;;;;;5132534;27;20042;-60
2022/10/02 09:36:03;;;;;;;8.80;0.85;;;18.00;99.90;;;;;;5131431;27;20039;-59
2022/10/02 09:39:14;;;;;;;15.60;1.50;;;18.10;99.90;;;;;;5150995;27;20090;-60
2022/10/02 09:42:05;;;;;;;8.45;1.02;;;18.20;99.90;;;;;;5150343;27;20072;-60
2022/10/02 09:45:08;;;;;;;8.93;1.05;;;18.20;99.90;;;;;;5111388;28;20135;-59
2022/10/02 09:48:08;;;;;;;6.82;1.23;;;18.20;99.90;;;;;;5125601;27;20050;-60
2022/10/02 09:50:48;;;;;;;9.70;1.27;;;18.30;99.90;;;;;;5132487;27;20152;-60
2022/10/02 09:53:52;;;;;;;13.40;1.50;;;18.40;99.90;;;;;;5138040;27;20042;-60
2022/10/02 09:56:36;;;;;;;9.00;1.00;;;18.40;99.90;;;;;;5132192;27;20091;-58
2022/10/02 09:59:32;;;;;;;12.23;1.20;;;18.40;99.90;;;;;;5115248;27;20062;-59
2022/10/02 10:02:23;;;;;;;12.00;1.35;;;18.50;99.90;;;;;;5071581;27;20495;-59
2022/10/02 10:04:52;;;;;;;12.55;1.48;;;18.40;99.90;;;;;;5106735;28;20507;-60
2022/10/02 10:07:54;;;;;;;7.50;1.45;;;18.40;99.90;;;;;;5117433;27;20031;-59
2022/10/02 10:10:48;;;;;;;10.68;1.65;;;18.50;99.90;;;;;;5126710;27;20452;-58
2022/10/02 10:13:31;;;;;;;8.68;0.95;;;18.40;99.90;;;;;;5133273;27;20047;-58
2022/10/02 10:15:56;;;;;;;10.65;1.33;;;18.30;99.90;;;;;;5119756;27;20125;-59
2022/10/02 10:18:55;;;;;;;18.63;0.98;;;18.10;99.90;;;;;;5128976;27;20118;-57
2022/10/02 10:21:48;;;;;;;7.07;1.48;;;18.10;99.90;;;;;;5125890;27;20043;-57
2022/10/02 10:24:32;;;;;;;5.85;1.27;;;18.10;99.90;;;;;;5121662;27;20031;-60
2022/10/02 10:27:29;;;;;;;9.35;1.00;;;18.30;99.90;;;;;;5121104;27;20384;-59
2022/10/02 10:30:22;;;;;;;8.73;1.50;;;18.50;99.90;;;;;;5121696;27;20421;-58
2022/10/02 10:33:36;;;;;;;11.38;1.02;;;18.50;99.90;;;;;;5132699;27;20035;-59
2022/10/02 10:39:12;;;;;;;6.25;1.23;;;18.70;99.90;;;;;;5132145;27;20514;-59
2022/10/02 10:41:58;;;;;;;11.82;1.55;;;19.00;99.90;;;;;;5119430;27;20079;-59
2022/10/02 10:44:49;;;;;;;11.93;1.25;;;19.10;99.90;;;;;;5124974;27;20035;-58
2022/10/02 10:47:26;;;;;;;11.93;1.08;;;19.10;99.90;;;;;;5125910;27;20075;-58
2022/10/02 10:50:10;;;;;;;6.07;0.82;;;19.30;99.90;;;;;;5126037;27;20407;-59
2022/10/02 10:52:38;;;;;;;9.55;1.55;;;19.50;99.90;;;;;;5122437;27;20507;-59
2022/10/02 10:55:17;;;;;;;6.68;1.00;;;19.60;99.90;;;;;;5125740;27;20074;-58
2022/10/02 10:58:31;;;;;;;9.00;1.02;;;19.50;99.70;;;;;;5111810;27;20039;-59
2022/10/02 11:01:18;;;;;;;9.45;0.85;;;19.30;99.70;;;;;;5121535;27;20075;-60
2022/10/02 11:03:57;;;;;;;6.65;1.00;;;19.20;97.80;;;;;;5119658;27;20031;-58
2022/10/02 11:06:52;;;;;;;6.78;0.80;;;19.30;98.00;;;;;;5125492;27;20039;-58
2022/10/02 11:09:31;;;;;;;7.95;1.13;;;19.30;97.80;;;;;;5125370;27;20461;-58
2022/10/02 11:12:22;;;;;;;5.63;1.42;;;19.30;96.90;;;;;;5125715;28;20039;-58
2022/10/02 11:15:06;;;;;;;8.25;1.00;;;19.30;96.30;;;;;;5123906;27;20039;-59
2022/10/02 11:18:05;;;;;;;7.53;1.15;;;19.50;96.70;;;;;;5122473;27;20051;-59
2022/10/02 11:20:55;;;;;;;8.45;0.80;;;19.60;96.40;;;;;;5120147;27;20058;-58
2022/10/02 11:23:33;;;;;;;8.45;0.93;;;19.70;94.90;;;;;;5125334;27;20067;-57
2022/10/02 11:26:24;;;;;;;3.25;0.80;;;19.80;94.50;;;;;;5130215;27;20469;-59
2022/10/02 11:28:51;;;;;;;11.18;1.00;;;19.80;94.40;;;;;;5121752;27;20039;-58
2022/10/02 11:31:16;;;;;;;;;;;19.90;94.90;;;;;;5124746;27;20044;-57
2022/10/02 11:33:47;;;;;;;8.90;1.13;;;19.90;93.40;;;;;;5127842;27;20492;-57
2022/10/02 11:36:44;;;;;;;9.40;1.02;;;19.90;94.60;;;;;;5094013;27;20126;-58
2022/10/02 11:39:35;;;;;;;7.95;1.48;;;19.90;94.70;;;;;;5130196;27;20031;-58
2022/10/02 11:42:18;;;;;;;5.10;0.68;;;20.00;94.80;;;;;;5128385;27;20426;-59
2022/10/02 11:45:07;;;;;;;5.53;0.68;;;20.00;94.40;;;;;;5129337;27;20491;-59
2022/10/02 11:48:07;;;;;;;7.70;1.27;;;20.10;94.20;;;;;;5126852;27;20046;-58
2022/10/02 11:50:54;;;;;;;8.75;1.48;;;20.10;94.30;;;;;;5125666;27;20573;-59
2022/10/02 11:53:44;;;;;;;7.45;0.77;;;20.20;93.20;;;;;;5132734;27;20694;-58
2022/10/02 11:56:34;;;;;;;3.85;0.73;;;20.30;94.10;;;;;;5130147;27;20039;-59
2022/10/02 11:59:17;;;;;;;7.75;1.42;;;20.40;94.40;;;;;;5131732;27;20092;-58
2022/10/02 12:02:28;;;;;;;5.72;1.52;;;20.40;92.90;;;;;;5128110;27;20046;-57
2022/10/02 12:05:22;;;;;;;9.68;5.03;;;20.20;92.30;;;;;;5132079;27;20071;-58
2022/10/02 12:08:06;;;;;;;15.00;4.38;;;19.90;92.40;;;;;;5126819;27;20095;-59
2022/10/02 12:10:47;;;;;;;12.57;2.17;;;19.70;93.40;;;;;;5124540;27;20572;-58
2022/10/02 12:13:41;;;;;;;16.27;8.52;;;19.40;93.40;;;;;;5128357;27;20377;-58
2022/10/02 12:16:31;;;;;;;27.65;19.42;;;19.20;93.60;;;;;;5128806;27;20039;-57
2022/10/02 12:19:24;;;;;;;12.18;3.15;;;19.10;94.50;;;;;;5130645;27;20118;-59
2022/10/02 12:28:22;;;;;;;9.18;1.63;;;18.80;94.60;;;;;;5149560;27;20406;-59
2022/10/02 12:31:00;;;;;;;8.30;1.77;;;18.70;94.80;;;;;;5123949;27;20085;-59
2022/10/02 12:33:33;;;;;;;6.63;1.38;;;18.70;95.10;;;;;;5113780;27;20047;-60
2022/10/02 12:36:20;;;;;;;10.45;1.88;;;18.80;95.00;;;;;;5131082;27;20039;-59
2022/10/02 12:38:54;;;;;;;12.50;1.87;;;18.90;95.70;;;;;;5133622;27;20067;-59
2022/10/02 12:41:34;;;;;;;7.10;1.35;;;19.10;95.50;;;;;;5113019;28;20764;-59
2022/10/02 12:44:09;;;;;;;10.95;1.08;;;19.30;95.60;;;;;;5112034;27;20075;-59
2022/10/02 12:47:26;;;;;;;7.28;0.93;;;19.50;95.60;;;;;;5154916;27;20035;-59
2022/10/02 12:50:15;;;;;;;9.85;1.15;;;19.70;95.10;;;;;;5141551;27;20088;-59
2022/10/02 12:53:18;;;;;;;8.27;1.05;;;19.80;95.30;;;;;;5133799;27;20035;-59
2022/10/02 12:55:57;;;;;;;6.30;0.90;;;20.00;95.00;;;;;;5116280;27;20096;-59
2022/10/02 12:58:30;;;;;;;3.75;0.85;;;20.10;94.70;;;;;;5133542;27;20043;-59
2022/10/02 13:01:18;;;;;;;9.00;1.25;;;20.10;92.30;;;;;;5133663;27;20043;-59
2022/10/02 13:04:04;;;;;;;7.22;1.05;;;20.20;91.60;;;;;;5132388;27;20466;-59
2022/10/02 13:06:45;;;;;;;7.82;1.13;;;20.20;90.50;;;;;;5128993;27;20408;-59
2022/10/02 13:09:15;;;;;;;2.63;0.60;;;20.20;90.20;;;;;;5135595;27;20038;-59
2022/10/02 13:12:10;;;;;;;5.88;0.90;;;20.20;90.20;;;;;;5134089;27;20035;-59
2022/10/02 13:15:02;;;;;;;8.23;0.95;;;20.10;88.70;;;;;;5114307;27;20436;-59
2022/10/02 13:18:00;;;;;;;9.90;1.67;;;19.90;89.30;;;;;;5153860;27;20042;-59
2022/10/02 13:20:27;;;;;;;;;;;19.90;89.50;;;;;;5145167;27;20031;-60
2022/10/02 13:23:04;;;;;;;6.30;0.75;;;19.90;89.90;;;;;;5132706;27;19926;-60
2022/10/02 13:25:41;;;;;;;25.40;14.13;;;19.90;89.60;;;;;;5128832;27;20526;-60
2022/10/02 13:28:44;;;;;;;7.35;1.45;;;19.80;89.00;;;;;;5112043;28;20111;-58
2022/10/02 13:31:44;;;;;;;5.80;0.65;;;19.80;88.10;;;;;;5132473;27;20118;-59
2022/10/02 13:34:28;;;;;;;7.80;0.98;;;19.80;88.50;;;;;;5118862;27;20050;-59
2022/10/02 13:37:18;;;;;;;6.60;0.80;;;19.80;90.10;;;;;;5133542;27;20106;-59
2022/10/02 13:39:58;;;;;;;9.95;1.73;;;19.90;89.90;;;;;;5117894;27;20118;-59
2022/10/02 13:42:51;;;;;;;5.75;1.15;;;20.00;90.50;;;;;;5117526;27;20113;-59
2022/10/02 13:45:20;;;;;;;17.65;2.10;;;19.80;89.10;;;;;;5133106;27;20634;-59
2022/10/02 13:48:25;;;;;;;7.10;0.88;;;19.70;90.60;;;;;;5131918;27;20039;-60
2022/10/02 13:51:17;;;;;;;8.88;1.00;;;19.50;90.20;;;;;;5140137;27;20499;-60
2022/10/02 13:54:14;;;;;;;6.38;1.20;;;19.30;90.90;;;;;;5107073;27;20445;-58
2022/10/02 13:57:04;;;;;;;12.20;1.40;;;19.20;90.80;;;;;;5118940;27;20046;-60
2022/10/02 13:59:45;;;;;;;8.73;0.90;;;19.10;91.60;;;;;;5111622;28;20457;-59
2022/10/02 14:02:41;;;;;;;7.10;1.38;;;19.20;91.70;;;;;;5131053;27;20046;-60
2022/10/02 14:05:30;;;;;;;9.55;1.25;;;19.20;91.10;;;;;;5113125;27;20040;-60
2022/10/02 14:08:13;;;;;;;8.73;1.35;;;19.20;91.00;;;;;;5093479;28;20051;-59
2022/10/02 14:10:52;;;;;;;10.02;1.30;;;19.20;91.30;;;;;;5121507;27;20045;-60